Time;durP1;ratioP1;P1;durP2;ratioP2;P2;SDS_P1;SDS_P2;PMS_P1;PMS_P2;Temp;Humidity;BMP_temperature;BMP_pressure;BME280_temperature;BME280_humidity;BME280_pressure;Samples;Min_cycle;Max_cycle;Signal;HPM_P1;HPM_P2
2022/07/18 00:01:08;;;;;;;;;;;20.80;74.40;;;;;;5081048;28;19928;-58
2022/07/18 00:03:35;;;;;;;;;;;20.80;74.60;;;;;;5080811;28;19925;-56
2022/07/18 00:06:03;;;;;;;;;;;20.80;74.90;;;;;;5080871;28;20392;-56
2022/07/18 00:08:31;;;;;;;;;;;20.80;75.10;;;;;;5083384;28;19935;-56
2022/07/18 00:10:58;;;;;;;;;;;20.80;75.20;;;;;;5076850;28;19935;-57
2022/07/18 00:13:26;;;;;;;;;;;20.80;75.40;;;;;;5072751;28;19931;-56
2022/07/18 00:15:53;;;;;;;;;;;20.80;75.60;;;;;;5085784;28;20384;-56
2022/07/18 00:18:21;;;;;;;;;;;20.80;75.70;;;;;;5084608;28;19931;-55
2022/07/18 00:20:48;;;;;;;;;;;20.80;75.80;;;;;;5075990;28;19928;-58
2022/07/18 00:23:17;;;;;;;;;;;20.70;75.90;;;;;;5073107;28;19936;-57
2022/07/18 00:25:44;;;;;;;;;;;20.70;76.00;;;;;;5080084;28;19931;-57
2022/07/18 00:28:11;;;;;;;;;;;20.60;76.20;;;;;;5083651;28;19928;-56
2022/07/18 00:30:40;;;;;;;;;;;20.70;76.40;;;;;;5082999;28;19924;-56
2022/07/18 00:33:07;;;;;;;;;;;20.60;76.40;;;;;;5082462;28;20287;-56
2022/07/18 00:35:35;;;;;;;;;;;20.60;76.70;;;;;;5073419;28;19936;-57
2022/07/18 00:38:03;;;;;;;;;;;20.50;76.70;;;;;;5075352;28;19931;-56
2022/07/18 00:40:31;;;;;;;;;;;20.50;76.80;;;;;;5070909;28;20951;-55
2022/07/18 00:42:58;;;;;;;;;;;20.50;76.80;;;;;;5072659;28;19935;-57
2022/07/18 00:45:26;;;;;;;;;;;20.50;77.00;;;;;;5069247;28;19931;-55
2022/07/18 00:47:54;;;;;;;;;;;20.40;77.80;;;;;;5079403;28;19925;-56
2022/07/18 00:50:22;;;;;;;;;;;20.30;78.00;;;;;;5079698;28;19924;-55
2022/07/18 00:52:49;;;;;;;;;;;20.30;78.60;;;;;;5073180;28;19931;-56
2022/07/18 00:55:17;;;;;;;;;;;20.20;79.10;;;;;;5087257;28;19959;-57
2022/07/18 00:57:45;;;;;;;;;;;20.10;79.50;;;;;;5070119;28;19928;-57
2022/07/18 01:03:00;;;;;;;;;;;20.00;79.80;;;;;;5080698;28;19939;-57
2022/07/18 01:05:28;;;;;;;;;;;19.90;80.20;;;;;;5074114;28;20257;-57
2022/07/18 01:07:55;;;;;;;;;;;19.90;80.10;;;;;;5074313;28;19936;-56
2022/07/18 01:10:23;;;;;;;;;;;19.90;80.20;;;;;;5083094;28;20386;-56
2022/07/18 01:12:50;;;;;;;;;;;19.80;80.20;;;;;;5083945;28;19950;-56
2022/07/18 01:15:18;;;;;;;;;;;19.80;80.40;;;;;;5075343;28;19936;-57
2022/07/18 01:17:46;;;;;;;;;;;19.70;80.60;;;;;;5087065;28;20403;-55
2022/07/18 01:20:13;;;;;;;;;;;19.70;80.60;;;;;;5085021;28;20296;-56
2022/07/18 01:22:41;;;;;;;;;;;19.60;80.60;;;;;;5074246;28;19928;-55
2022/07/18 01:25:09;;;;;;;;;;;19.60;80.80;;;;;;5090757;28;20566;-58
2022/07/18 01:27:38;;;;;;;;;;;19.50;81.00;;;;;;5070901;28;19928;-58
2022/07/18 01:30:06;;;;;;;;;;;19.50;81.20;;;;;;5082498;28;19924;-58
2022/07/18 01:32:33;;;;;;;;;;;19.40;81.30;;;;;;5084905;28;19924;-58
2022/07/18 01:35:02;;;;;;;;;;;19.40;81.50;;;;;;5086248;28;19934;-57
2022/07/18 01:37:29;;;;;;;;;;;19.30;81.70;;;;;;5079982;28;19924;-57
2022/07/18 01:39:57;;;;;;;;;;;19.30;82.00;;;;;;5077967;28;19925;-57
2022/07/18 01:42:24;;;;;;;;;;;19.20;82.30;;;;;;5091255;28;19924;-57
2022/07/18 01:44:52;;;;;;;;;;;19.10;82.70;;;;;;5075515;28;19924;-58
2022/07/18 01:47:19;;;;;;;;;;;19.00;82.70;;;;;;5078721;28;19932;-56
2022/07/18 01:49:47;;;;;;;;;;;19.00;83.20;;;;;;5085922;28;19931;-55
2022/07/18 01:52:14;;;;;;;;;;;18.90;83.20;;;;;;5077087;28;19940;-57
2022/07/18 01:54:42;;;;;;;;;;;18.90;83.40;;;;;;5092241;28;20349;-55
2022/07/18 01:57:09;;;;;;;;;;;18.90;83.50;;;;;;5082083;28;19940;-57
2022/07/18 01:59:37;;;;;;;;;;;18.80;83.50;;;;;;5072490;28;19928;-57
2022/07/18 02:02:04;;;;;;;;;;;18.80;83.60;;;;;;5072977;28;20372;-56
2022/07/18 02:07:22;;;;;;;;;;;18.70;83.90;;;;;;5072806;28;19924;-57
2022/07/18 02:09:49;;;;;;;;;;;18.60;84.20;;;;;;5070728;28;19924;-57
2022/07/18 02:12:17;;;;;;;;;;;18.60;84.30;;;;;;5073232;28;19929;-57
2022/07/18 02:14:44;;;;;;;;;;;18.60;84.60;;;;;;5076306;28;19925;-58
2022/07/18 02:17:12;;;;;;;;;;;18.50;84.80;;;;;;5080441;28;19931;-55
2022/07/18 02:19:39;;;;;;;;;;;18.50;85.00;;;;;;5073242;28;19928;-56
2022/07/18 02:22:07;;;;;;;;;;;18.40;84.90;;;;;;5073049;28;19924;-56
2022/07/18 02:24:34;;;;;;;;;;;18.40;85.00;;;;;;5089960;28;19927;-56
2022/07/18 02:27:02;;;;;;;;;;;18.40;85.00;;;;;;5090487;28;19947;-57
2022/07/18 02:29:30;;;;;;;;;;;18.30;85.10;;;;;;5085231;28;19978;-57
2022/07/18 02:31:57;;;;;;;;;;;18.30;85.20;;;;;;5079874;28;20532;-56
2022/07/18 02:34:25;;;;;;;;;;;18.30;85.30;;;;;;5081226;28;19925;-56
2022/07/18 02:36:52;;;;;;;;;;;18.30;85.30;;;;;;5080625;28;20031;-57
2022/07/18 02:39:20;;;;;;;;;;;18.20;85.20;;;;;;5073372;28;20399;-57
2022/07/18 02:41:47;;;;;;;;;;;18.10;85.20;;;;;;5085193;28;19925;-56
2022/07/18 02:44:15;;;;;;;;;;;18.10;85.40;;;;;;5087634;28;19929;-57
2022/07/18 02:46:43;;;;;;;;;;;18.00;85.70;;;;;;5085891;28;20500;-57
2022/07/18 02:49:26;;;;;;;;;;;17.90;85.70;;;;;;5072768;28;20547;-56
2022/07/18 02:51:54;;;;;;;;;;;18.00;85.90;;;;;;5086095;28;19931;-57
2022/07/18 02:54:22;;;;;;;;;;;17.90;86.00;;;;;;5090651;28;19924;-56
2022/07/18 02:56:50;;;;;;;;;;;17.80;86.30;;;;;;5072260;28;19924;-57
2022/07/18 02:59:17;;;;;;;;;;;17.90;86.70;;;;;;5076425;28;20002;-57
2022/07/18 03:01:45;;;;;;;;;;;17.80;86.70;;;;;;5079945;28;19924;-56
2022/07/18 03:04:12;;;;;;;;;;;17.70;86.70;;;;;;5070752;28;19924;-56
2022/07/18 03:06:40;;;;;;;;;;;17.70;86.70;;;;;;5089574;28;19924;-56
2022/07/18 03:09:08;;;;;;;;;;;17.70;86.80;;;;;;5090149;28;19931;-59
2022/07/18 03:11:35;;;;;;;;;;;17.60;86.60;;;;;;5082924;28;19924;-56
2022/07/18 03:14:02;;;;;;;;;;;17.60;86.80;;;;;;5075069;28;19931;-56
2022/07/18 03:16:30;;;;;;;;;;;17.50;87.00;;;;;;5070925;28;19924;-55
2022/07/18 03:18:58;;;;;;;;;;;17.40;87.10;;;;;;5072056;28;20296;-56
2022/07/18 03:21:25;;;;;;;;;;;17.40;87.30;;;;;;5086731;28;19931;-55
2022/07/18 03:23:53;;;;;;;;;;;17.40;87.50;;;;;;5088348;28;19924;-56
2022/07/18 03:26:20;;;;;;;;;;;17.30;87.70;;;;;;5085372;28;19931;-56
2022/07/18 03:28:48;;;;;;;;;;;17.20;88.10;;;;;;5089188;28;19928;-56
2022/07/18 03:31:15;;;;;;;;;;;17.10;88.00;;;;;;5080619;28;19924;-57
2022/07/18 03:33:43;;;;;;;;;;;17.10;88.50;;;;;;5078829;28;20291;-55
2022/07/18 03:36:10;;;;;;;;;;;17.10;88.70;;;;;;5085832;28;20387;-57
2022/07/18 03:38:42;;;;;;;;;;;17.00;88.80;;;;;;5089459;28;20276;-55
2022/07/18 03:41:11;;;;;;;;;;;16.90;89.00;;;;;;5088289;28;19931;-56
2022/07/18 03:43:39;;;;;;;;;;;16.90;89.30;;;;;;5075713;28;19936;-56
2022/07/18 03:46:07;;;;;;;;;;;16.80;89.70;;;;;;5078679;28;19931;-55
2022/07/18 03:48:34;;;;;;;;;;;16.80;90.00;;;;;;5072208;28;19928;-55
2022/07/18 03:51:03;;;;;;;;;;;16.70;90.10;;;;;;5081381;28;19938;-56
2022/07/18 03:53:31;;;;;;;;;;;16.70;90.20;;;;;;5069203;28;19925;-56
2022/07/18 03:55:58;;;;;;;;;;;16.70;90.40;;;;;;5075514;28;19931;-56
2022/07/18 03:58:26;;;;;;;;;;;16.60;90.40;;;;;;5080055;28;19928;-58
2022/07/18 04:00:54;;;;;;;;;;;16.60;90.60;;;;;;5085534;28;19932;-58
2022/07/18 04:03:21;;;;;;;;;;;16.50;90.70;;;;;;5076485;28;19924;-57
2022/07/18 04:05:49;;;;;;;;;;;16.50;90.70;;;;;;5090227;28;19931;-57
2022/07/18 04:08:17;;;;;;;;;;;16.50;90.90;;;;;;5082690;28;20007;-58
2022/07/18 04:10:45;;;;;;;;;;;16.40;90.90;;;;;;5073637;28;20400;-56
2022/07/18 04:13:12;;;;;;;;;;;16.40;90.90;;;;;;5074333;28;19924;-57
2022/07/18 04:15:40;;;;;;;;;;;16.40;91.20;;;;;;5072031;28;19924;-58
2022/07/18 04:18:07;;;;;;;;;;;16.40;91.30;;;;;;5080909;28;19928;-58
2022/07/18 04:20:35;;;;;;;;;;;16.30;91.30;;;;;;5090043;28;20383;-57
2022/07/18 04:23:05;;;;;;;;;;;16.30;91.30;;;;;;5078978;28;19924;-57
2022/07/18 04:25:34;;;;;;;;;;;16.30;91.40;;;;;;5088379;28;20290;-56
2022/07/18 04:28:02;;;;;;;;;;;16.30;91.50;;;;;;5074482;28;19925;-55
2022/07/18 04:30:29;;;;;;;;;;;16.20;91.60;;;;;;5079064;28;19924;-57
2022/07/18 04:32:57;;;;;;;;;;;16.20;91.60;;;;;;5073342;28;19939;-57
2022/07/18 04:35:24;;;;;;;;;;;16.20;91.80;;;;;;5093718;28;19924;-55
2022/07/18 04:37:52;;;;;;;;;;;16.20;91.90;;;;;;5081835;28;19924;-56
2022/07/18 04:40:19;;;;;;;;;;;16.10;92.00;;;;;;5081757;28;19931;-57
2022/07/18 04:42:47;;;;;;;;;;;16.10;92.10;;;;;;5091946;28;19994;-56
2022/07/18 04:45:15;;;;;;;;;;;16.10;92.20;;;;;;5085889;28;19932;-56
2022/07/18 04:47:43;;;;;;;;;;;16.10;92.20;;;;;;5073430;28;19924;-56
2022/07/18 04:50:10;;;;;;;;;;;16.20;92.30;;;;;;5053727;28;19925;-58
2022/07/18 04:52:38;;;;;;;;;;;16.10;92.30;;;;;;5076267;28;19932;-57
2022/07/18 04:55:07;;;;;;;;;;;16.10;92.40;;;;;;5077956;28;19928;-57
2022/07/18 04:57:34;;;;;;;;;;;16.10;92.40;;;;;;5075419;28;19935;-57
2022/07/18 05:00:06;;;;;;;;;;;16.20;92.50;;;;;;5076299;28;20299;-57
2022/07/18 05:02:34;;;;;;;;;;;16.20;92.50;;;;;;5069532;28;19932;-56
2022/07/18 05:05:02;;;;;;;;;;;16.20;92.60;;;;;;5081382;28;19925;-57
2022/07/18 05:07:29;;;;;;;;;;;16.20;92.60;;;;;;5073155;28;19931;-56
2022/07/18 05:10:00;;;;;;;;;;;16.20;92.70;;;;;;5084455;28;19928;-56
2022/07/18 05:12:28;;;;;;;;;;;16.20;92.80;;;;;;5077455;28;19932;-56
2022/07/18 05:14:55;;;;;;;;;;;16.20;92.80;;;;;;5081753;28;19931;-56
2022/07/18 05:17:29;;;;;;;;;;;16.20;92.90;;;;;;5083187;28;19924;-56
2022/07/18 05:19:57;;;;;;;;;;;16.30;92.90;;;;;;5073374;28;19928;-56
2022/07/18 05:22:25;;;;;;;;;;;16.30;92.90;;;;;;5075205;28;19928;-56
2022/07/18 05:24:52;;;;;;;;;;;16.30;92.80;;;;;;5088423;28;19924;-56
2022/07/18 05:27:19;;;;;;;;;;;16.40;92.80;;;;;;5080455;28;19932;-56
2022/07/18 05:29:47;;;;;;;;;;;16.40;92.90;;;;;;5093750;28;19924;-55
2022/07/18 05:32:14;;;;;;;;;;;16.50;92.90;;;;;;5080673;28;20303;-56
2022/07/18 05:34:46;;;;;;;;;;;16.50;92.90;;;;;;5074361;28;19931;-57
2022/07/18 05:37:14;;;;;;;;;;;16.60;92.90;;;;;;5083337;28;19925;-57
2022/07/18 05:39:41;;;;;;;;;;;16.60;92.90;;;;;;5070531;28;19924;-56
2022/07/18 05:42:08;;;;;;;;;;;16.70;93.00;;;;;;5087039;28;19931;-56
2022/07/18 05:44:36;;;;;;;;;;;16.80;92.90;;;;;;5074056;28;19935;-56
2022/07/18 05:47:03;;;;;;;;;;;16.90;93.00;;;;;;5074661;28;19928;-56
2022/07/18 05:49:32;;;;;;;;;;;16.90;92.80;;;;;;5079510;28;19925;-56
2022/07/18 05:52:02;;;;;;;;;;;17.00;92.70;;;;;;5089014;28;19931;-57
2022/07/18 05:54:30;;;;;;;;;;;16.20;92.40;;;;;;5083574;28;19924;-54
2022/07/18 05:56:57;;;;;;;;;;;17.10;92.60;;;;;;5067662;28;19932;-55
2022/07/18 05:59:25;;;;;;;;;;;17.10;92.60;;;;;;5076154;28;20395;-55
2022/07/18 06:01:52;;;;;;;;;;;17.20;92.60;;;;;;5083587;28;20191;-55
2022/07/18 06:04:20;;;;;;;;;;;17.30;92.60;;;;;;5082271;28;20327;-56
2022/07/18 06:06:49;;;;;;;;;;;17.40;92.50;;;;;;5068696;28;20454;-57
2022/07/18 06:09:17;;;;;;;;;;;17.40;92.50;;;;;;5077176;28;19929;-55
2022/07/18 06:11:45;;;;;;;;;;;17.50;92.40;;;;;;5069382;28;21224;-55
2022/07/18 06:14:12;;;;;;;;;;;17.60;92.30;;;;;;5097128;28;20392;-56
2022/07/18 06:16:41;;;;;;;;;;;17.70;92.30;;;;;;5080776;28;20123;-54
2022/07/18 06:19:08;;;;;;;;;;;17.80;92.20;;;;;;5078665;28;19928;-55
2022/07/18 06:21:36;;;;;;;;;;;17.80;92.10;;;;;;5072064;28;19924;-55
2022/07/18 06:24:04;;;;;;;;;;;17.90;92.10;;;;;;5080491;28;19929;-55
2022/07/18 06:26:31;;;;;;;;;;;17.90;92.10;;;;;;5083846;28;19928;-56
2022/07/18 06:28:58;;;;;;;;;;;18.00;92.10;;;;;;5082789;28;19928;-57
2022/07/18 06:31:26;;;;;;;;;;;18.10;92.10;;;;;;5085872;28;20295;-56
2022/07/18 06:33:54;;;;;;;;;;;18.20;92.10;;;;;;5071062;28;19944;-57
2022/07/18 06:36:28;;;;;;;;;;;18.30;92.00;;;;;;5075511;28;19951;-57
2022/07/18 06:38:56;;;;;;;;;;;18.40;91.80;;;;;;5080784;28;20421;-56
2022/07/18 06:41:23;;;;;;;;;;;18.50;91.70;;;;;;5086655;28;20318;-57
2022/07/18 06:43:51;;;;;;;;;;;18.60;91.50;;;;;;5080488;28;19925;-57
2022/07/18 06:46:19;;;;;;;;;;;18.70;91.20;;;;;;5076156;28;19932;-57
2022/07/18 06:48:47;;;;;;;;;;;18.80;91.00;;;;;;5080285;28;19935;-56
2022/07/18 06:51:14;;;;;;;;;;;18.90;90.90;;;;;;5072360;28;20282;-57
2022/07/18 06:53:42;;;;;;;;;;;19.00;90.50;;;;;;5067391;28;19931;-59
2022/07/18 06:56:09;;;;;;;;;;;19.10;90.20;;;;;;5071782;28;19931;-57
2022/07/18 06:58:37;;;;;;;;;;;19.10;89.80;;;;;;5077933;28;20291;-59
2022/07/18 07:01:06;;;;;;;;;;;19.20;88.60;;;;;;5077822;28;19924;-56
2022/07/18 07:03:34;;;;;;;;;;;19.30;88.20;;;;;;5065748;28;19924;-56
2022/07/18 07:06:01;;;;;;;;;;;19.40;86.50;;;;;;5073995;28;19932;-57
2022/07/18 07:08:29;;;;;;;;;;;19.40;86.30;;;;;;5080509;28;20706;-57
2022/07/18 07:10:56;;;;;;;;;;;19.40;85.70;;;;;;5075796;28;19925;-57
2022/07/18 07:13:24;;;;;;;;;;;19.50;85.40;;;;;;5077661;28;19925;-58
2022/07/18 07:15:51;;;;;;;;;;;19.50;85.30;;;;;;5072065;28;20399;-57
2022/07/18 07:18:19;;;;;;;;;;;19.60;85.00;;;;;;5072569;28;19925;-57
2022/07/18 07:20:47;;;;;;;;;;;19.60;85.00;;;;;;5068722;28;19936;-58
2022/07/18 07:23:16;;;;;;;;;;;19.70;84.30;;;;;;5077946;28;19924;-58
2022/07/18 07:25:44;;;;;;;;;;;19.70;83.10;;;;;;5077852;28;19924;-57
2022/07/18 07:28:12;;;;;;;;;;;19.80;83.20;;;;;;5075418;28;19924;-57
2022/07/18 07:30:39;;;;;;;;;;;19.90;82.80;;;;;;5073509;28;20257;-59
2022/07/18 07:33:07;;;;;;;;;;;20.00;83.10;;;;;;5073732;28;19924;-58
2022/07/18 07:35:34;;;;;;;;;;;20.00;82.70;;;;;;5069351;28;19928;-58
2022/07/18 07:38:02;;;;;;;;;;;20.20;82.30;;;;;;5073319;28;19928;-59
2022/07/18 07:40:30;;;;;;;;;;;20.30;81.60;;;;;;5079353;28;19928;-58
2022/07/18 07:43:04;;;;;;;;;;;20.40;81.40;;;;;;5074118;28;19924;-59
2022/07/18 07:45:32;;;;;;;;;;;20.50;80.10;;;;;;5070496;28;19932;-58
2022/07/18 07:48:00;;;;;;;;;;;20.60;79.20;;;;;;5076598;28;19931;-58
2022/07/18 07:50:27;;;;;;;;;;;20.70;79.80;;;;;;5068153;28;19932;-58
2022/07/18 07:52:56;;;;;;;;;;;20.90;78.50;;;;;;5068154;28;19924;-56
2022/07/18 07:55:24;;;;;;;;;;;21.00;77.90;;;;;;5068735;28;19924;-57
2022/07/18 07:57:51;;;;;;;;;;;21.00;76.70;;;;;;5080723;28;20413;-58
2022/07/18 08:00:19;;;;;;;;;;;21.20;75.80;;;;;;5068459;28;19932;-57
2022/07/18 08:02:51;;;;;;;;;;;21.30;75.00;;;;;;5073059;28;19924;-58
2022/07/18 08:05:26;;;;;;;;;;;21.40;76.30;;;;;;5068287;28;19924;-58
2022/07/18 08:07:54;;;;;;;;;;;21.60;75.30;;;;;;5081820;28;19923;-58
2022/07/18 08:10:21;;;;;;;;;;;21.70;76.30;;;;;;5080535;28;19924;-58
2022/07/18 08:12:49;;;;;;;;;;;21.80;75.50;;;;;;5075256;28;20492;-58
2022/07/18 08:15:17;;;;;;;;;;;21.90;75.20;;;;;;5077831;28;20416;-58
2022/07/18 08:17:44;;;;;;;;;;;22.10;75.20;;;;;;5072119;28;19931;-57
2022/07/18 08:20:16;;;;;;;;;;;22.20;74.30;;;;;;5075080;28;19932;-58
2022/07/18 08:22:56;;;;;;;;;;;22.30;75.20;;;;;;5080957;28;20268;-57
2022/07/18 08:25:24;;;;;;;;;;;22.40;74.30;;;;;;5071025;28;19931;-57
2022/07/18 08:27:51;;;;;;;;;;;22.50;73.60;;;;;;5080371;28;19960;-58
2022/07/18 08:30:19;;;;;;;;;;;22.60;72.60;;;;;;5071102;28;19924;-57
2022/07/18 08:32:47;;;;;;;;;;;22.80;72.70;;;;;;5075919;28;19955;-57
2022/07/18 08:35:15;;;;;;;;;;;22.90;72.50;;;;;;5073400;28;20364;-57
2022/07/18 08:37:43;;;;;;;;;;;23.10;70.30;;;;;;5078648;28;20006;-56
2022/07/18 08:40:11;;;;;;;;;;;23.30;69.80;;;;;;5076188;28;19925;-57
2022/07/18 08:42:38;;;;;;;;;;;23.40;68.10;;;;;;5087133;28;19931;-57
2022/07/18 08:45:26;;;;;;;;;;;23.50;67.40;;;;;;5084298;28;19924;-57
2022/07/18 08:47:54;;;;;;;;;;;23.70;67.70;;;;;;5076695;28;20384;-57
2022/07/18 08:50:22;;;;;;;;;;;23.80;65.60;;;;;;5079133;28;20387;-56
2022/07/18 08:52:49;;;;;;;;;;;23.90;66.00;;;;;;5074526;28;19939;-57
2022/07/18 08:55:21;;;;;;;;;;;24.10;64.80;;;;;;5082385;28;19946;-58
2022/07/18 08:57:53;;;;;;;;;;;24.20;63.50;;;;;;5091833;28;19927;-58
2022/07/18 09:00:22;;;;;;;;;;;24.40;60.90;;;;;;5090678;28;19924;-58
2022/07/18 09:02:56;;;;;;;;;;;24.40;59.60;;;;;;5079390;28;19932;-58
2022/07/18 09:05:24;;;;;;;;;;;24.50;59.40;;;;;;5076424;28;19925;-57
2022/07/18 09:08:27;;;;;;;;;;;24.60;60.90;;;;;;5082611;28;19925;-58
2022/07/18 09:10:56;;;;;;;;;;;24.70;60.20;;;;;;5086537;28;19931;-58
2022/07/18 09:13:35;;;;;;;;;;;24.80;57.80;;;;;;5080977;28;19924;-58
2022/07/18 09:16:05;;;;;;;;;;;24.90;58.60;;;;;;5077032;28;19924;-58
2022/07/18 09:18:37;;;;;;;;;;;25.00;58.90;;;;;;5081867;28;19924;-58
2022/07/18 09:21:05;;;;;;;;;;;25.20;58.50;;;;;;5077760;28;19932;-58
2022/07/18 09:23:34;;;;;;;;;;;25.20;58.40;;;;;;5077463;28;19929;-58
2022/07/18 09:26:02;;;;;;;;;;;25.40;59.10;;;;;;5073598;28;19928;-58
2022/07/18 09:28:50;;;;;;;;;;;25.50;58.30;;;;;;5083217;28;19936;-57
2022/07/18 09:31:38;;;;;;;;;;;25.60;58.90;;;;;;5084133;28;19947;-58
2022/07/18 09:34:06;;;;;;;;;;;25.70;59.20;;;;;;5074727;28;19946;-58
2022/07/18 09:36:36;;;;;;;;;;;25.80;59.70;;;;;;5058996;28;19925;-59
2022/07/18 09:39:30;;;;;;;;;;;25.90;59.00;;;;;;5077880;28;20295;-58
2022/07/18 09:42:14;;;;;;;;;;;26.00;59.10;;;;;;5093784;28;19926;-58
2022/07/18 09:44:41;;;;;;;;;;;26.10;59.10;;;;;;5076307;28;19931;-57
2022/07/18 09:47:09;;;;;;;;;;;26.20;59.00;;;;;;5078787;28;19932;-57
2022/07/18 09:49:40;;;;;;;;;;;26.40;59.30;;;;;;5073913;28;19924;-58
2022/07/18 09:52:09;;;;;;;;;;;26.50;59.40;;;;;;5077633;28;19936;-58
2022/07/18 09:54:40;;;;;;;;;;;26.70;59.10;;;;;;5083451;28;19928;-58
2022/07/18 09:57:08;;;;;;;;;;;26.80;58.00;;;;;;5079026;28;19931;-58
2022/07/18 09:59:36;;;;;;;;;;;27.00;58.20;;;;;;5087707;28;20103;-59
2022/07/18 10:02:04;;;;;;;;;;;27.10;58.20;;;;;;5077218;28;19924;-57
2022/07/18 10:04:32;;;;;;;;;;;27.20;57.70;;;;;;5074313;28;20426;-57
2022/07/18 10:06:59;;;;;;;;;;;27.30;57.40;;;;;;5071246;28;19925;-57
2022/07/18 10:09:27;;;;;;;;;;;27.50;56.80;;;;;;5068344;28;19943;-57
2022/07/18 10:11:54;;;;;;;;;;;27.60;57.20;;;;;;5073645;28;19932;-58
2022/07/18 10:14:29;;;;;;;;;;;27.70;56.20;;;;;;5079323;28;19932;-57
2022/07/18 10:16:58;;;;;;;;;;;27.80;56.60;;;;;;5085137;28;19931;-57
2022/07/18 10:19:26;;;;;;;;;;;27.80;56.70;;;;;;5082937;28;19931;-58
2022/07/18 10:21:56;;;;;;;;;;;28.00;56.80;;;;;;5081961;28;19923;-57
2022/07/18 10:24:24;;;;;;;;;;;28.10;56.30;;;;;;5088292;28;20319;-58
2022/07/18 10:27:10;;;;;;;;;;;28.30;56.10;;;;;;5072576;28;19931;-58
2022/07/18 10:29:37;;;;;;;;;;;28.40;55.40;;;;;;5073469;28;19935;-58
2022/07/18 10:32:07;;;;;;;;;;;28.60;55.60;;;;;;5070292;28;19935;-57
2022/07/18 10:34:38;;;;;;;;;;;28.80;54.50;;;;;;5078307;28;19933;-58
2022/07/18 10:37:07;;;;;;;;;;;28.90;54.70;;;;;;5069535;28;19929;-57
2022/07/18 10:39:35;;;;;;;;;;;29.10;53.90;;;;;;5087531;28;19932;-57
2022/07/18 10:42:03;;;;;;;;;;;29.20;53.30;;;;;;5078555;28;20307;-57
2022/07/18 10:44:34;;;;;;;;;;;29.30;52.50;;;;;;5080567;28;19931;-57
2022/07/18 10:47:05;;;;;;;;;;;29.40;53.10;;;;;;5075844;28;19928;-57
2022/07/18 10:49:51;;;;;;;;;;;29.60;53.10;;;;;;5072728;28;19931;-57
2022/07/18 10:52:25;;;;;;;;;;;29.70;52.90;;;;;;5073164;28;20403;-58
2022/07/18 10:57:49;;;;;;;;;;;30.10;51.70;;;;;;5075061;28;19935;-57
2022/07/18 11:00:24;;;;;;;;;;;30.30;51.90;;;;;;5070991;28;19927;-57
2022/07/18 11:03:00;;;;;;;;;;;30.50;51.40;;;;;;5077746;28;19928;-56
2022/07/18 11:05:28;;;;;;;;;;;30.70;51.40;;;;;;5070472;28;19925;-57
2022/07/18 11:08:01;;;;;;;;;;;30.70;51.30;;;;;;5072164;28;19932;-57
2022/07/18 11:10:40;;;;;;;;;;;30.80;50.70;;;;;;5072567;28;19924;-57
2022/07/18 11:13:21;;;;;;;;;;;31.00;51.10;;;;;;5070725;28;19929;-57
2022/07/18 11:16:09;;;;;;;;;;;31.00;51.40;;;;;;5078097;28;19931;-57
2022/07/18 11:18:40;;;;;;;;;;;31.10;50.80;;;;;;5066774;28;20403;-57
2022/07/18 11:21:16;;;;;;;;;;;31.30;49.60;;;;;;5072346;28;19947;-58
2022/07/18 11:23:47;;;;;;;;;;;31.40;49.60;;;;;;5075370;28;20214;-59
2022/07/18 11:26:16;;;;;;;;;;;31.60;48.70;;;;;;5070004;28;20297;-58
2022/07/18 11:28:45;;;;;;;;;;;31.80;48.40;;;;;;5070715;28;19925;-60
2022/07/18 11:31:13;;;;;;;;;;;31.90;48.20;;;;;;5076280;28;19928;-58
2022/07/18 11:33:50;;;;;;;;;;;32.00;47.30;;;;;;5072518;28;19947;-59
2022/07/18 11:36:21;;;;;;;;;;;32.10;46.60;;;;;;5058299;28;19924;-58
2022/07/18 11:38:53;;;;;;;;;;;32.20;46.90;;;;;;5075421;28;19932;-58
2022/07/18 11:41:22;;;;;;;;;;;32.30;47.00;;;;;;5068308;28;20011;-58
2022/07/18 11:43:50;;;;;;;;;;;32.60;46.50;;;;;;5082283;28;20082;-57
2022/07/18 11:46:19;;;;;;;;;;;32.90;46.20;;;;;;5055510;28;20034;-57
2022/07/18 11:48:48;;;;;;;;;;;33.20;45.80;;;;;;5075734;28;19932;-59
2022/07/18 11:51:16;;;;;;;;;;;33.40;45.60;;;;;;5079141;28;19928;-57
2022/07/18 11:53:47;;;;;;;;;;;33.30;45.30;;;;;;5069981;28;19925;-57
2022/07/18 11:56:16;;;;;;;;;;;33.10;44.60;;;;;;5075919;28;19924;-58
2022/07/18 11:58:44;;;;;;;;;;;33.00;45.00;;;;;;5069195;28;19932;-57
2022/07/18 12:01:12;;;;;;;;;;;33.00;45.30;;;;;;5084810;28;19935;-57
2022/07/18 12:03:44;;;;;;;;;;;33.20;45.70;;;;;;5079561;28;19931;-57
2022/07/18 12:06:16;;;;;;;;;;;33.40;44.40;;;;;;5069783;28;20303;-57
2022/07/18 12:08:44;;;;;;;;;;;33.80;44.60;;;;;;5067329;28;19924;-62
2022/07/18 12:11:12;;;;;;;;;;;34.20;44.70;;;;;;5088285;28;20462;-58
2022/07/18 12:13:43;;;;;;;;;;;34.50;44.30;;;;;;5073797;28;20368;-58
2022/07/18 12:16:40;;;;;;;;;;;34.70;43.10;;;;;;5067684;28;19936;-61
2022/07/18 12:19:12;;;;;;;;;;;34.90;42.60;;;;;;5072243;28;19939;-56
2022/07/18 12:21:49;;;;;;;;;;;34.80;41.70;;;;;;5080179;28;19931;-56
2022/07/18 12:24:37;;;;;;;;;;;34.60;41.90;;;;;;5073828;28;20379;-59
2022/07/18 12:27:08;;;;;;;;;;;34.70;42.30;;;;;;5088173;28;19924;-59
2022/07/18 12:29:55;;;;;;;;;;;35.10;42.60;;;;;;5096036;28;19924;-60
2022/07/18 12:32:24;;;;;;;;;;;35.40;42.30;;;;;;5073683;28;19924;-59
2022/07/18 12:34:55;;;;;;;;;;;35.50;41.60;;;;;;5076228;28;19948;-59
2022/07/18 12:37:24;;;;;;;;;;;35.70;42.30;;;;;;5085171;28;20375;-58
2022/07/18 12:39:58;;;;;;;;;;;35.90;41.70;;;;;;5078907;28;20757;-58
2022/07/18 12:42:46;;;;;;;;;;;36.00;41.40;;;;;;5075401;28;19924;-57
2022/07/18 12:45:14;;;;;;;;;;;36.30;41.00;;;;;;5087813;28;19927;-59
2022/07/18 12:47:41;;;;;;;;;;;36.60;41.30;;;;;;5088279;28;20361;-58
2022/07/18 12:50:09;;;;;;;;;;;36.90;40.90;;;;;;5086756;28;19924;-58
2022/07/18 12:52:41;;;;;;;;;;;37.00;39.90;;;;;;5076235;28;19925;-57
2022/07/18 12:55:08;;;;;;;;;;;36.90;39.40;;;;;;5091374;28;19928;-57
2022/07/18 12:57:36;;;;;;;;;;;36.70;40.40;;;;;;5079830;28;19928;-58
2022/07/18 13:00:04;;;;;;;;;;;36.90;40.80;;;;;;5073428;28;20486;-57
2022/07/18 13:02:32;;;;;;;;;;;37.10;40.30;;;;;;5074942;28;19932;-57
2022/07/18 13:05:00;;;;;;;;;;;37.20;39.90;;;;;;5090758;28;19928;-59
2022/07/18 13:07:27;;;;;;;;;;;37.10;39.60;;;;;;5077015;28;19928;-57
2022/07/18 13:09:55;;;;;;;;;;;36.80;39.90;;;;;;5093310;28;19940;-58
2022/07/18 13:12:22;;;;;;;;;;;36.40;39.80;;;;;;5077903;28;19936;-58
2022/07/18 13:14:50;;;;;;;;;;;35.90;39.80;;;;;;5086102;28;19924;-58
2022/07/18 13:17:17;;;;;;;;;;;35.50;40.30;;;;;;5076903;28;19932;-57
2022/07/18 13:19:45;;;;;;;;;;;35.20;41.00;;;;;;5083722;28;19931;-58
2022/07/18 13:22:13;;;;;;;;;;;35.30;41.50;;;;;;5072926;28;19928;-57
2022/07/18 13:24:40;;;;;;;;;;;35.60;41.50;;;;;;5076553;28;19925;-54
2022/07/18 13:27:08;;;;;;;;;;;35.90;41.60;;;;;;5091415;28;20386;-55
2022/07/18 13:29:36;;;;;;;;;;;36.10;40.50;;;;;;5079385;28;19943;-55
2022/07/18 13:32:03;;;;;;;;;;;36.00;40.00;;;;;;5071127;28;19925;-57
2022/07/18 13:34:31;;;;;;;;;;;36.10;41.20;;;;;;5075064;28;20002;-55
2022/07/18 13:37:06;;;;;;;;;;;36.40;39.00;;;;;;5071132;28;20397;-55
2022/07/18 13:39:34;;;;;;;;;;;36.60;39.20;;;;;;5080615;28;19932;-54
2022/07/18 13:42:02;;;;;;;;;;;36.50;39.10;;;;;;5078145;28;20473;-56
2022/07/18 13:44:30;;;;;;;;;;;36.30;38.90;;;;;;5088019;28;19934;-55
2022/07/18 13:46:57;;;;;;;;;;;36.40;39.90;;;;;;5087325;28;19929;-57
2022/07/18 13:49:25;;;;;;;;;;;36.80;40.50;;;;;;5080563;28;19925;-57
2022/07/18 13:51:52;;;;;;;;;;;37.30;39.80;;;;;;5074017;28;19928;-57
2022/07/18 13:54:20;;;;;;;;;;;37.80;38.60;;;;;;5072227;28;19928;-58
2022/07/18 13:56:47;;;;;;;;;;;38.10;37.70;;;;;;5071224;28;19935;-56
2022/07/18 13:59:15;;;;;;;;;;;38.40;38.10;;;;;;5095084;28;20417;-57
2022/07/18 14:01:42;;;;;;;;;;;38.80;38.60;;;;;;5087142;28;19947;-58
2022/07/18 14:04:10;;;;;;;;;;;39.10;38.10;;;;;;5080036;28;19925;-57
2022/07/18 14:06:38;;;;;;;;;;;39.50;37.60;;;;;;5075797;28;19931;-58
2022/07/18 14:09:05;;;;;;;;;;;39.80;38.50;;;;;;5087332;28;19932;-57
2022/07/18 14:11:33;;;;;;;;;;;40.00;36.20;;;;;;5070622;28;19924;-57
2022/07/18 14:14:01;;;;;;;;;;;40.00;36.00;;;;;;5077503;28;19939;-57
2022/07/18 14:16:30;;;;;;;;;;;40.00;35.90;;;;;;5071177;28;19924;-56
2022/07/18 14:18:57;;;;;;;;;;;40.00;36.20;;;;;;5070493;28;19924;-57
2022/07/18 14:21:25;;;;;;;;;;;40.20;36.60;;;;;;5079354;28;19931;-57
2022/07/18 14:23:54;;;;;;;;;;;40.30;35.90;;;;;;5079706;28;19925;-57
2022/07/18 14:26:21;;;;;;;;;;;40.30;36.30;;;;;;5082824;28;19928;-56
2022/07/18 14:28:49;;;;;;;;;;;40.30;36.50;;;;;;5075270;28;19924;-57
2022/07/18 14:31:16;;;;;;;;;;;40.40;37.10;;;;;;5086491;28;19943;-57
2022/07/18 14:33:45;;;;;;;;;;;40.70;36.70;;;;;;5076894;28;20349;-57
2022/07/18 14:36:13;;;;;;;;;;;41.00;36.20;;;;;;5076713;28;19928;-56